sensor_id;sensor_type;location;lat;lon;timestamp;pressure;altitude;pressure_sealevel;temperature;humidity
55685;BME280;41883;49.544;8.646;2023-02-28T00:02:24;101517.38;;;-0.56;nan
55685;BME280;41883;49.544;8.646;2023-02-28T00:04:49;101516.56;;;-0.58;nan
55685;BME280;41883;49.544;8.646;2023-02-28T00:07:18;101513.25;;;-0.62;nan
55685;BME280;41883;49.544;8.646;2023-02-28T00:09:43;101518.44;;;-0.62;nan
55685;BME280;41883;49.544;8.646;2023-02-28T00:12:08;101513.97;;;-0.58;nan
55685;BME280;41883;49.544;8.646;2023-02-28T00:14:35;101513.19;;;-0.60;nan
55685;BME280;41883;49.544;8.646;2023-02-28T00:17:00;101510.75;;;-0.65;nan
55685;BME280;41883;49.544;8.646;2023-02-28T00:19:25;101516.78;;;-0.65;nan
55685;BME280;41883;49.544;8.646;2023-02-28T00:21:50;101517.66;;;-0.64;nan
55685;BME280;41883;49.544;8.646;2023-02-28T00:24:15;101517.75;;;-0.67;nan
55685;BME280;41883;49.544;8.646;2023-02-28T00:26:41;101517.13;;;-0.74;nan
55685;BME280;41883;49.544;8.646;2023-02-28T00:29:06;101518.16;;;-0.78;nan
55685;BME280;41883;49.544;8.646;2023-02-28T00:31:31;101516.59;;;-0.83;nan
55685;BME280;41883;49.544;8.646;2023-02-28T00:33:56;101520.16;;;-0.86;nan
55685;BME280;41883;49.544;8.646;2023-02-28T00:36:21;101513.28;;;-0.87;nan
55685;BME280;41883;49.544;8.646;2023-02-28T00:38:46;101510.78;;;-0.90;nan
55685;BME280;41883;49.544;8.646;2023-02-28T00:41:12;101522.03;;;-0.90;nan
55685;BME280;41883;49.544;8.646;2023-02-28T00:43:37;101521.19;;;-0.90;nan
55685;BME280;41883;49.544;8.646;2023-02-28T00:46:03;101518.75;;;-0.95;nan
55685;BME280;41883;49.544;8.646;2023-02-28T00:48:28;101520.56;;;-0.98;nan
55685;BME280;41883;49.544;8.646;2023-02-28T00:50:53;101526.69;;;-0.99;nan
55685;BME280;41883;49.544;8.646;2023-02-28T00:53:19;101519.84;;;-1.02;nan
55685;BME280;41883;49.544;8.646;2023-02-28T00:55:44;101515.53;;;-1.03;nan
55685;BME280;41883;49.544;8.646;2023-02-28T00:58:09;101514.81;;;-1.07;nan
55685;BME280;41883;49.544;8.646;2023-02-28T01:00:34;101518.22;;;-1.04;nan
55685;BME280;41883;49.544;8.646;2023-02-28T01:02:59;101515.53;;;-1.03;nan
55685;BME280;41883;49.544;8.646;2023-02-28T01:05:25;101520.81;;;-1.04;nan
55685;BME280;41883;49.544;8.646;2023-02-28T01:07:50;101524.22;;;-1.02;nan
55685;BME280;41883;49.544;8.646;2023-02-28T01:10:15;101518.25;;;-1.06;nan
55685;BME280;41883;49.544;8.646;2023-02-28T01:12:40;101508.72;;;-1.05;nan
55685;BME280;41883;49.544;8.646;2023-02-28T01:15:06;101513.06;;;-1.06;nan
55685;BME280;41883;49.544;8.646;2023-02-28T01:17:31;101514.94;;;-1.10;nan
55685;BME280;41883;49.544;8.646;2023-02-28T01:19:56;101514.94;;;-1.10;nan
55685;BME280;41883;49.544;8.646;2023-02-28T01:22:21;101514.13;;;-1.12;nan
55685;BME280;41883;49.544;8.646;2023-02-28T01:24:46;101512.56;;;-1.17;nan
55685;BME280;41883;49.544;8.646;2023-02-28T01:27:12;101509.25;;;-1.21;nan
55685;BME280;41883;49.544;8.646;2023-02-28T01:29:38;101510.13;;;-1.22;nan
55685;BME280;41883;49.544;8.646;2023-02-28T01:32:03;101511.00;;;-1.21;nan
55685;BME280;41883;49.544;8.646;2023-02-28T01:34:28;101497.22;;;-1.23;nan
55685;BME280;41883;49.544;8.646;2023-02-28T01:36:53;101501.63;;;-1.25;nan
55685;BME280;41883;49.544;8.646;2023-02-28T01:39:19;101511.03;;;-1.23;nan
55685;BME280;41883;49.544;8.646;2023-02-28T01:41:44;101511.88;;;-1.22;nan
55685;BME280;41883;49.544;8.646;2023-02-28T01:47:13;101512.19;;;-1.32;nan
55685;BME280;41883;49.544;8.646;2023-02-28T01:49:39;101508.03;;;-1.36;nan
55685;BME280;41883;49.544;8.646;2023-02-28T01:52:04;101510.72;;;-1.39;nan
55685;BME280;41883;49.544;8.646;2023-02-28T01:54:30;101504.63;;;-1.38;nan
55685;BME280;41883;49.544;8.646;2023-02-28T01:57:10;101502.84;;;-1.36;nan
55685;BME280;41883;49.544;8.646;2023-02-28T01:59:43;101503.00;;;-1.40;nan
55685;BME280;41883;49.544;8.646;2023-02-28T02:02:13;101500.47;;;-1.43;nan
55685;BME280;41883;49.544;8.646;2023-02-28T02:04:40;101502.22;;;-1.44;nan
55685;BME280;41883;49.544;8.646;2023-02-28T02:07:06;101502.22;;;-1.44;nan
55685;BME280;41883;49.544;8.646;2023-02-28T02:09:31;101497.09;;;-1.45;nan
55685;BME280;41883;49.544;8.646;2023-02-28T02:11:57;101494.44;;;-1.44;nan
55685;BME280;41883;49.544;8.646;2023-02-28T02:19:26;101495.41;;;-1.46;nan
55685;BME280;41883;49.544;8.646;2023-02-28T02:27:32;101495.59;;;-1.53;nan
55685;BME280;41883;49.544;8.646;2023-02-28T02:30:12;101490.31;;;-1.50;nan
55685;BME280;41883;49.544;8.646;2023-02-28T02:32:46;101488.72;;;-1.54;nan
55685;BME280;41883;49.544;8.646;2023-02-28T02:37:49;101485.53;;;-1.62;nan
55685;BME280;41883;49.544;8.646;2023-02-28T02:45:16;101483.31;;;-1.74;nan
55685;BME280;41883;49.544;8.646;2023-02-28T02:47:42;101497.34;;;-1.80;nan
55685;BME280;41883;49.544;8.646;2023-02-28T02:50:11;101485.19;;;-1.78;nan
55685;BME280;41883;49.544;8.646;2023-02-28T02:52:39;101497.34;;;-1.80;nan
55685;BME280;41883;49.544;8.646;2023-02-28T02:55:07;101491.22;;;-1.77;nan
55685;BME280;41883;49.544;8.646;2023-02-28T02:57:42;101485.06;;;-1.75;nan
55685;BME280;41883;49.544;8.646;2023-02-28T03:00:10;101494.41;;;-1.69;nan
55685;BME280;41883;49.544;8.646;2023-02-28T03:02:36;101492.78;;;-1.72;nan
55685;BME280;41883;49.544;8.646;2023-02-28T03:05:04;101503.22;;;-1.75;nan
55685;BME280;41883;49.544;8.646;2023-02-28T03:07:31;101493.81;;;-1.77;nan
55685;BME280;41883;49.544;8.646;2023-02-28T03:09:57;101491.91;;;-1.72;nan
55685;BME280;41883;49.544;8.646;2023-02-28T03:12:56;101486.69;;;-1.71;nan
55685;BME280;41883;49.544;8.646;2023-02-28T03:15:17;101491.84;;;-1.69;nan
55685;BME280;41883;49.544;8.646;2023-02-28T03:20:36;101481.66;;;-1.75;nan
55685;BME280;41883;49.544;8.646;2023-02-28T03:25:41;101479.16;;;-1.78;nan
55685;BME280;41883;49.544;8.646;2023-02-28T03:28:18;101478.22;;;-1.76;nan
55685;BME280;41883;49.544;8.646;2023-02-28T03:30:51;101474.03;;;-1.81;nan
55685;BME280;41883;49.544;8.646;2023-02-28T03:36:08;101480.72;;;-1.74;nan
55685;BME280;41883;49.544;8.646;2023-02-28T03:38:36;101481.66;;;-1.75;nan
55685;BME280;41883;49.544;8.646;2023-02-28T03:41:09;101483.31;;;-1.74;nan
55685;BME280;41883;49.544;8.646;2023-02-28T03:43:36;101479.09;;;-1.77;nan
55685;BME280;41883;49.544;8.646;2023-02-28T03:46:04;101485.28;;;-1.81;nan
55685;BME280;41883;49.544;8.646;2023-02-28T03:48:33;101472.38;;;-1.82;nan
55685;BME280;41883;49.544;8.646;2023-02-28T03:51:00;101474.16;;;-1.84;nan
55685;BME280;41883;49.544;8.646;2023-02-28T03:53:29;101481.13;;;-1.86;nan
55685;BME280;41883;49.544;8.646;2023-02-28T03:56:17;101482.91;;;-1.88;nan
55685;BME280;41883;49.544;8.646;2023-02-28T03:58:42;101482.16;;;-1.90;nan
55685;BME280;41883;49.544;8.646;2023-02-28T04:01:11;101482.00;;;-1.86;nan
55685;BME280;41883;49.544;8.646;2023-02-28T04:03:38;101486.41;;;-1.89;nan
55685;BME280;41883;49.544;8.646;2023-02-28T04:06:04;101483.03;;;-1.92;nan
55685;BME280;41883;49.544;8.646;2023-02-28T04:08:30;101489.19;;;-1.96;nan
55685;BME280;41883;49.544;8.646;2023-02-28T04:10:57;101484.13;;;-1.99;nan
55685;BME280;41883;49.544;8.646;2023-02-28T04:13:25;101483.28;;;-1.99;nan
55685;BME280;41883;49.544;8.646;2023-02-28T04:15:51;101481.63;;;-2.02;nan
55685;BME280;41883;49.544;8.646;2023-02-28T04:18:16;101484.31;;;-2.05;nan
55685;BME280;41883;49.544;8.646;2023-02-28T04:20:41;101483.56;;;-2.08;nan
55685;BME280;41883;49.544;8.646;2023-02-28T04:23:06;101485.19;;;-2.06;nan
55685;BME280;41883;49.544;8.646;2023-02-28T04:25:31;101487.81;;;-2.07;nan
55685;BME280;41883;49.544;8.646;2023-02-28T04:27:57;101489.66;;;-2.09;nan
55685;BME280;41883;49.544;8.646;2023-02-28T04:30:22;101489.69;;;-2.11;nan
55685;BME280;41883;49.544;8.646;2023-02-28T04:32:47;101494.91;;;-2.13;nan
55685;BME280;41883;49.544;8.646;2023-02-28T04:35:12;101487.13;;;-2.13;nan
55685;BME280;41883;49.544;8.646;2023-02-28T04:37:37;101488.00;;;-2.12;nan
55685;BME280;41883;49.544;8.646;2023-02-28T04:40:03;101493.31;;;-2.17;nan
55685;BME280;41883;49.544;8.646;2023-02-28T04:42:28;101487.41;;;-2.22;nan
55685;BME280;41883;49.544;8.646;2023-02-28T04:45:00;101489.16;;;-2.22;nan
55685;BME280;41883;49.544;8.646;2023-02-28T04:47:25;101488.97;;;-2.16;nan
55685;BME280;41883;49.544;8.646;2023-02-28T04:49:50;101487.19;;;-2.14;nan
55685;BME280;41883;49.544;8.646;2023-02-28T04:52:15;101482.88;;;-2.15;nan
55685;BME280;41883;49.544;8.646;2023-02-28T04:54:40;101478.47;;;-2.11;nan
55685;BME280;41883;49.544;8.646;2023-02-28T04:57:06;101483.81;;;-2.18;nan
55685;BME280;41883;49.544;8.646;2023-02-28T04:59:31;101482.94;;;-2.17;nan
55685;BME280;41883;49.544;8.646;2023-02-28T05:01:56;101486.53;;;-2.21;nan
55685;BME280;41883;49.544;8.646;2023-02-28T05:04:21;101486.56;;;-2.22;nan
55685;BME280;41883;49.544;8.646;2023-02-28T05:06:46;101493.50;;;-2.23;nan
55685;BME280;41883;49.544;8.646;2023-02-28T05:09:12;101492.66;;;-2.23;nan
55685;BME280;41883;49.544;8.646;2023-02-28T05:11:37;101497.75;;;-2.22;nan
55685;BME280;41883;49.544;8.646;2023-02-28T05:14:04;101488.28;;;-2.21;nan
55685;BME280;41883;49.544;8.646;2023-02-28T05:16:30;101502.91;;;-2.20;nan
55685;BME280;41883;49.544;8.646;2023-02-28T05:18:55;101501.13;;;-2.18;nan
55685;BME280;41883;49.544;8.646;2023-02-28T05:21:22;101498.41;;;-2.14;nan
55685;BME280;41883;49.544;8.646;2023-02-28T05:23:49;101511.25;;;-2.10;nan
55685;BME280;41883;49.544;8.646;2023-02-28T05:26:14;101507.69;;;-2.06;nan
55685;BME280;41883;49.544;8.646;2023-02-28T05:28:39;101502.59;;;-2.09;nan
55685;BME280;41883;49.544;8.646;2023-02-28T05:31:04;101495.56;;;-2.06;nan
55685;BME280;41883;49.544;8.646;2023-02-28T05:33:30;101499.94;;;-2.08;nan
55685;BME280;41883;49.544;8.646;2023-02-28T05:35:55;101505.94;;;-2.06;nan
55685;BME280;41883;49.544;8.646;2023-02-28T05:38:20;101504.97;;;-2.03;nan
55685;BME280;41883;49.544;8.646;2023-02-28T05:40:45;101498.78;;;-1.98;nan
55685;BME280;41883;49.544;8.646;2023-02-28T05:43:10;101495.28;;;-1.97;nan
55685;BME280;41883;49.544;8.646;2023-02-28T05:45:36;101500.56;;;-2.00;nan
55685;BME280;41883;49.544;8.646;2023-02-28T05:48:01;101510.06;;;-2.00;nan
55685;BME280;41883;49.544;8.646;2023-02-28T05:50:27;101508.38;;;-2.01;nan
55685;BME280;41883;49.544;8.646;2023-02-28T05:52:52;101508.53;;;-2.06;nan
55685;BME280;41883;49.544;8.646;2023-02-28T05:55:18;101506.03;;;-2.09;nan
55685;BME280;41883;49.544;8.646;2023-02-28T05:57:43;101502.81;;;-2.17;nan
55685;BME280;41883;49.544;8.646;2023-02-28T06:00:08;101501.28;;;-2.24;nan
55685;BME280;41883;49.544;8.646;2023-02-28T06:02:34;101507.47;;;-2.28;nan
55685;BME280;41883;49.544;8.646;2023-02-28T06:04:59;101503.41;;;-2.37;nan
55685;BME280;41883;49.544;8.646;2023-02-28T06:07:24;101507.88;;;-2.42;nan
55685;BME280;41883;49.544;8.646;2023-02-28T06:09:49;101509.66;;;-2.44;nan
55685;BME280;41883;49.544;8.646;2023-02-28T06:12:15;101515.69;;;-2.44;nan
55685;BME280;41883;49.544;8.646;2023-02-28T06:14:40;101509.44;;;-2.37;nan
55685;BME280;41883;49.544;8.646;2023-02-28T06:17:05;101507.47;;;-2.28;nan
55685;BME280;41883;49.544;8.646;2023-02-28T06:19:31;101503.75;;;-2.20;nan
55685;BME280;41883;49.544;8.646;2023-02-28T06:21:56;101499.44;;;-2.19;nan
55685;BME280;41883;49.544;8.646;2023-02-28T06:24:22;101515.63;;;-2.13;nan
55685;BME280;41883;49.544;8.646;2023-02-28T06:26:47;101511.22;;;-2.09;nan
55685;BME280;41883;49.544;8.646;2023-02-28T06:29:13;101514.69;;;-2.10;nan
55685;BME280;41883;49.544;8.646;2023-02-28T06:31:41;101517.13;;;-2.05;nan
55685;BME280;41883;49.544;8.646;2023-02-28T06:34:07;101520.44;;;-2.00;nan
55685;BME280;41883;49.544;8.646;2023-02-28T06:36:32;101517.53;;;-1.89;nan
55685;BME280;41883;49.544;8.646;2023-02-28T06:38:57;101515.69;;;-1.86;nan
55685;BME280;41883;49.544;8.646;2023-02-28T06:41:24;101524.03;;;-1.76;nan
55685;BME280;41883;49.544;8.646;2023-02-28T06:43:50;101529.13;;;-1.73;nan
55685;BME280;41883;49.544;8.646;2023-02-28T06:46:15;101516.84;;;-1.68;nan
55685;BME280;41883;49.544;8.646;2023-02-28T06:48:40;101520.03;;;-1.60;nan
55685;BME280;41883;49.544;8.646;2023-02-28T06:51:10;101525.47;;;-1.41;nan
55685;BME280;41883;49.544;8.646;2023-02-28T06:53:36;101526.19;;;-1.36;nan
55685;BME280;41883;49.544;8.646;2023-02-28T06:56:05;101536.16;;;-1.23;nan
55685;BME280;41883;49.544;8.646;2023-02-28T06:58:31;101528.78;;;-1.11;nan
55685;BME280;41883;49.544;8.646;2023-02-28T07:00:56;101537.06;;;-0.99;nan
55685;BME280;41883;49.544;8.646;2023-02-28T07:03:21;101538.47;;;-0.91;nan
55685;BME280;41883;49.544;8.646;2023-02-28T07:05:46;101538.97;;;-0.79;nan
55685;BME280;41883;49.544;8.646;2023-02-28T07:08:12;101539.56;;;-0.71;nan
55685;BME280;41883;49.544;8.646;2023-02-28T07:10:37;101545.03;;;-0.55;nan
55685;BME280;41883;49.544;8.646;2023-02-28T07:13:03;101544.19;;;-0.56;nan
55685;BME280;41883;49.544;8.646;2023-02-28T07:15:28;101545.50;;;-0.20;nan
55685;BME280;41883;49.544;8.646;2023-02-28T07:17:54;101547.59;;;0.15;nan
55685;BME280;41883;49.544;8.646;2023-02-28T07:20:19;101547.84;;;0.74;nan
55685;BME280;41883;49.544;8.646;2023-02-28T07:22:44;101539.91;;;1.18;nan
55685;BME280;41883;49.544;8.646;2023-02-28T07:25:09;101545.13;;;1.57;nan
55685;BME280;41883;49.544;8.646;2023-02-28T07:27:34;101549.56;;;1.93;nan
55685;BME280;41883;49.544;8.646;2023-02-28T07:30:00;101547.31;;;2.41;nan
55685;BME280;41883;49.544;8.646;2023-02-28T07:32:28;101561.88;;;2.81;nan
55685;BME280;41883;49.544;8.646;2023-02-28T07:34:54;101552.16;;;2.67;nan
55685;BME280;41883;49.544;8.646;2023-02-28T07:37:19;101563.41;;;3.03;nan
55685;BME280;41883;49.544;8.646;2023-02-28T07:39:44;101557.25;;;3.38;nan
55685;BME280;41883;49.544;8.646;2023-02-28T07:42:09;101560.97;;;2.82;nan
55685;BME280;41883;49.544;8.646;2023-02-28T07:44:37;101557.97;;;3.07;nan
55685;BME280;41883;49.544;8.646;2023-02-28T07:47:05;101557.09;;;2.18;nan
55685;BME280;41883;49.544;8.646;2023-02-28T07:49:30;101552.97;;;1.95;nan
55685;BME280;41883;49.544;8.646;2023-02-28T07:51:57;101556.97;;;2.02;nan
55685;BME280;41883;49.544;8.646;2023-02-28T07:54:22;101556.28;;;1.99;nan
55685;BME280;41883;49.544;8.646;2023-02-28T07:56:47;101548.81;;;1.72;nan
55685;BME280;41883;49.544;8.646;2023-02-28T07:59:12;101555.00;;;1.69;nan
55685;BME280;41883;49.544;8.646;2023-02-28T08:01:37;101560.22;;;1.51;nan
55685;BME280;41883;49.544;8.646;2023-02-28T08:04:03;101562.63;;;1.35;nan
55685;BME280;41883;49.544;8.646;2023-02-28T08:06:28;101569.75;;;1.50;nan
55685;BME280;41883;49.544;8.646;2023-02-28T08:08:53;101565.97;;;1.38;nan
55685;BME280;41883;49.544;8.646;2023-02-28T08:11:19;101563.66;;;1.31;nan
55685;BME280;41883;49.544;8.646;2023-02-28T08:13:44;101574.75;;;1.15;nan
55685;BME280;41883;49.544;8.646;2023-02-28T08:16:10;101576.25;;;1.21;nan
55685;BME280;41883;49.544;8.646;2023-02-28T08:18:35;101570.53;;;1.13;nan
55685;BME280;41883;49.544;8.646;2023-02-28T08:21:08;101566.81;;;1.18;nan
55685;BME280;41883;49.544;8.646;2023-02-28T08:23:33;101561.94;;;1.11;nan
55685;BME280;41883;49.544;8.646;2023-02-28T08:25:58;101559.13;;;1.15;nan
55685;BME280;41883;49.544;8.646;2023-02-28T08:28:23;101555.53;;;1.18;nan
55685;BME280;41883;49.544;8.646;2023-02-28T08:30:49;101554.38;;;1.25;nan
55685;BME280;41883;49.544;8.646;2023-02-28T08:33:14;101552.41;;;1.30;nan
55685;BME280;41883;49.544;8.646;2023-02-28T08:35:39;101550.63;;;1.31;nan
55685;BME280;41883;49.544;8.646;2023-02-28T08:38:04;101556.38;;;1.39;nan
55685;BME280;41883;49.544;8.646;2023-02-28T08:40:29;101558.59;;;1.48;nan
55685;BME280;41883;49.544;8.646;2023-02-28T08:42:54;101555.13;;;1.66;nan
55685;BME280;41883;49.544;8.646;2023-02-28T08:45:20;101548.53;;;1.78;nan
55685;BME280;41883;49.544;8.646;2023-02-28T08:47:45;101557.09;;;2.18;nan
55685;BME280;41883;49.544;8.646;2023-02-28T08:50:10;101549.59;;;2.83;nan
55685;BME280;41883;49.544;8.646;2023-02-28T08:52:35;101553.22;;;3.49;nan
55685;BME280;41883;49.544;8.646;2023-02-28T08:55:01;101555.38;;;4.21;nan
55685;BME280;41883;49.544;8.646;2023-02-28T08:57:26;101545.31;;;4.76;nan
55685;BME280;41883;49.544;8.646;2023-02-28T08:59:52;101544.25;;;4.94;nan
55685;BME280;41883;49.544;8.646;2023-02-28T09:02:17;101542.44;;;5.39;nan
55685;BME280;41883;49.544;8.646;2023-02-28T09:04:42;101547.94;;;5.78;nan
55685;BME280;41883;49.544;8.646;2023-02-28T09:07:10;101555.44;;;6.40;nan
55685;BME280;41883;49.544;8.646;2023-02-28T09:09:35;101549.38;;;6.52;nan
55685;BME280;41883;49.544;8.646;2023-02-28T09:12:01;101555.59;;;7.16;nan
55685;BME280;41883;49.544;8.646;2023-02-28T09:14:27;101547.94;;;7.39;nan
55685;BME280;41883;49.544;8.646;2023-02-28T09:16:52;101552.13;;;7.16;nan
55685;BME280;41883;49.544;8.646;2023-02-28T09:19:17;101553.75;;;7.81;nan
55685;BME280;41883;49.544;8.646;2023-02-28T09:21:42;101557.13;;;8.20;nan
55685;BME280;41883;49.544;8.646;2023-02-28T09:24:07;101549.78;;;7.62;nan
55685;BME280;41883;49.544;8.646;2023-02-28T09:26:35;101560.31;;;6.04;nan
55685;BME280;41883;49.544;8.646;2023-02-28T09:29:02;101548.78;;;6.07;nan
55685;BME280;41883;49.544;8.646;2023-02-28T09:31:27;101550.41;;;5.52;nan
55685;BME280;41883;49.544;8.646;2023-02-28T09:33:54;101549.28;;;6.26;nan
55685;BME280;41883;49.544;8.646;2023-02-28T09:36:20;101546.06;;;6.08;nan
55685;BME280;41883;49.544;8.646;2023-02-28T09:38:45;101537.66;;;5.74;nan
55685;BME280;41883;49.544;8.646;2023-02-28T09:41:15;101545.16;;;5.38;nan
55685;BME280;41883;49.544;8.646;2023-02-28T09:43:43;101547.78;;;4.49;nan
55685;BME280;41883;49.544;8.646;2023-02-28T09:48:53;101539.84;;;4.34;nan
55685;BME280;41883;49.544;8.646;2023-02-28T09:53:58;101546.78;;;4.03;nan
55685;BME280;41883;49.544;8.646;2023-02-28T09:56:24;101537.84;;;3.92;nan
55685;BME280;41883;49.544;8.646;2023-02-28T09:58:57;101544.94;;;3.90;nan
55685;BME280;41883;49.544;8.646;2023-02-28T10:01:39;101539.28;;;3.81;nan
55685;BME280;41883;49.544;8.646;2023-02-28T10:04:16;101544.47;;;3.66;nan
55685;BME280;41883;49.544;8.646;2023-02-28T10:06:50;101538.38;;;3.49;nan
55685;BME280;41883;49.544;8.646;2023-02-28T10:09:19;101541.69;;;3.69;nan
55685;BME280;41883;49.544;8.646;2023-02-28T10:11:47;101548.34;;;3.58;nan
55685;BME280;41883;49.544;8.646;2023-02-28T10:16:40;101537.19;;;3.39;nan
55685;BME280;41883;49.544;8.646;2023-02-28T10:19:11;101544.91;;;3.25;nan
55685;BME280;41883;49.544;8.646;2023-02-28T10:21:45;101544.19;;;3.38;nan
55685;BME280;41883;49.544;8.646;2023-02-28T10:26:40;101542.81;;;5.33;nan
55685;BME280;41883;49.544;8.646;2023-02-28T10:29:08;101548.88;;;6.59;nan
55685;BME280;41883;49.544;8.646;2023-02-28T10:31:34;101546.31;;;7.62;nan
55685;BME280;41883;49.544;8.646;2023-02-28T10:34:00;101544.75;;;7.47;nan
55685;BME280;41883;49.544;8.646;2023-02-28T10:36:25;101546.56;;;8.57;nan
55685;BME280;41883;49.544;8.646;2023-02-28T10:38:50;101544.47;;;9.31;nan
55685;BME280;41883;49.544;8.646;2023-02-28T10:41:16;101540.28;;;9.40;nan
55685;BME280;41883;49.544;8.646;2023-02-28T10:43:42;101542.44;;;9.46;nan
55685;BME280;41883;49.544;8.646;2023-02-28T10:48:34;101542.16;;;10.81;nan
55685;BME280;41883;49.544;8.646;2023-02-28T10:51:01;101535.94;;;11.13;nan
55685;BME280;41883;49.544;8.646;2023-02-28T10:53:39;101531.84;;;10.46;nan
55685;BME280;41883;49.544;8.646;2023-02-28T11:03:46;101532.19;;;7.76;nan
55685;BME280;41883;49.544;8.646;2023-02-28T11:06:33;101533.97;;;7.62;nan
55685;BME280;41883;49.544;8.646;2023-02-28T11:09:02;101538.09;;;6.77;nan
55685;BME280;41883;49.544;8.646;2023-02-28T11:11:29;101536.00;;;6.95;nan
55685;BME280;41883;49.544;8.646;2023-02-28T11:13:57;101536.00;;;6.82;nan
55685;BME280;41883;49.544;8.646;2023-02-28T11:16:34;101531.41;;;6.98;nan
55685;BME280;41883;49.544;8.646;2023-02-28T11:19:00;101544.28;;;6.76;nan
55685;BME280;41883;49.544;8.646;2023-02-28T11:21:28;101535.34;;;6.11;nan
55685;BME280;41883;49.544;8.646;2023-02-28T11:24:15;101536.81;;;6.70;nan
55685;BME280;41883;49.544;8.646;2023-02-28T11:26:43;101530.09;;;6.78;nan
55685;BME280;41883;49.544;8.646;2023-02-28T11:29:16;101531.38;;;6.86;nan
55685;BME280;41883;49.544;8.646;2023-02-28T11:31:44;101531.44;;;6.31;nan
55685;BME280;41883;49.544;8.646;2023-02-28T11:34:25;101527.00;;;7.74;nan
55685;BME280;41883;49.544;8.646;2023-02-28T11:36:51;101521.75;;;7.74;nan
55685;BME280;41883;49.544;8.646;2023-02-28T11:39:16;101531.53;;;7.85;nan
55685;BME280;41883;49.544;8.646;2023-02-28T11:49:34;101516.50;;;8.35;nan
55685;BME280;41883;49.544;8.646;2023-02-28T11:52:10;101510.16;;;8.14;nan
55685;BME280;41883;49.544;8.646;2023-02-28T11:57:21;101503.72;;;7.94;nan
55685;BME280;41883;49.544;8.646;2023-02-28T12:08:15;101500.03;;;7.34;nan
55685;BME280;41883;49.544;8.646;2023-02-28T12:13:29;101495.31;;;7.26;nan
55685;BME280;41883;49.544;8.646;2023-02-28T12:16:04;101504.63;;;6.79;nan
55685;BME280;41883;49.544;8.646;2023-02-28T12:21:18;101500.72;;;6.59;nan
55685;BME280;41883;49.544;8.646;2023-02-28T12:23:57;101496.94;;;6.23;nan
55685;BME280;41883;49.544;8.646;2023-02-28T12:26:59;101506.41;;;6.26;nan
55685;BME280;41883;49.544;8.646;2023-02-28T12:29:27;101491.25;;;6.16;nan
55685;BME280;41883;49.544;8.646;2023-02-28T12:34:39;101491.50;;;5.99;nan
55685;BME280;41883;49.544;8.646;2023-02-28T12:37:14;101480.75;;;5.75;nan
55685;BME280;41883;49.544;8.646;2023-02-28T12:39:44;101487.94;;;5.86;nan
55685;BME280;41883;49.544;8.646;2023-02-28T12:42:11;101494.16;;;6.12;nan
55685;BME280;41883;49.544;8.646;2023-02-28T12:44:44;101495.75;;;6.14;nan
55685;BME280;41883;49.544;8.646;2023-02-28T12:47:17;101495.22;;;6.09;nan
55685;BME280;41883;49.544;8.646;2023-02-28T12:49:53;101490.97;;;5.94;nan
55685;BME280;41883;49.544;8.646;2023-02-28T12:52:47;101485.22;;;5.46;nan
55685;BME280;41883;49.544;8.646;2023-02-28T12:55:12;101487.34;;;5.53;nan
55685;BME280;41883;49.544;8.646;2023-02-28T13:00:32;101483.94;;;5.80;nan
55685;BME280;41883;49.544;8.646;2023-02-28T13:05:49;101479.38;;;5.55;nan
55685;BME280;41883;49.544;8.646;2023-02-28T13:10:48;101482.59;;;5.31;nan
55685;BME280;41883;49.544;8.646;2023-02-28T13:13:20;101477.34;;;5.46;nan
55685;BME280;41883;49.544;8.646;2023-02-28T13:16:02;101478.41;;;5.70;nan
55685;BME280;41883;49.544;8.646;2023-02-28T13:18:30;101481.34;;;5.51;nan
55685;BME280;41883;49.544;8.646;2023-02-28T13:20:56;101484.25;;;5.47;nan
55685;BME280;41883;49.544;8.646;2023-02-28T13:26:05;101477.69;;;5.54;nan
55685;BME280;41883;49.544;8.646;2023-02-28T13:29:04;101483.78;;;5.54;nan
55685;BME280;41883;49.544;8.646;2023-02-28T13:31:24;101483.88;;;5.53;nan
55685;BME280;41883;49.544;8.646;2023-02-28T13:38:43;101488.13;;;5.41;nan
55685;BME280;41883;49.544;8.646;2023-02-28T13:44:07;101485.66;;;5.24;nan
55685;BME280;41883;49.544;8.646;2023-02-28T13:46:34;101495.69;;;5.46;nan
55685;BME280;41883;49.544;8.646;2023-02-28T13:51:45;101486.22;;;5.43;nan
55685;BME280;41883;49.544;8.646;2023-02-28T13:57:00;101486.88;;;5.47;nan
55685;BME280;41883;49.544;8.646;2023-02-28T13:59:30;101480.53;;;5.37;nan
55685;BME280;41883;49.544;8.646;2023-02-28T14:02:18;101479.38;;;5.26;nan
55685;BME280;41883;49.544;8.646;2023-02-28T14:07:16;101482.28;;;5.36;nan
55685;BME280;41883;49.544;8.646;2023-02-28T14:09:45;101481.16;;;5.40;nan
55685;BME280;41883;49.544;8.646;2023-02-28T14:14:57;101484.81;;;5.52;nan
55685;BME280;41883;49.544;8.646;2023-02-28T14:17:22;101481.78;;;5.72;nan
55685;BME280;41883;49.544;8.646;2023-02-28T14:19:49;101484.91;;;5.50;nan
55685;BME280;41883;49.544;8.646;2023-02-28T14:32:58;101485.66;;;5.38;nan
55685;BME280;41883;49.544;8.646;2023-02-28T14:37:51;101485.50;;;5.27;nan
55685;BME280;41883;49.544;8.646;2023-02-28T14:40:17;101487.94;;;5.30;nan
55685;BME280;41883;49.544;8.646;2023-02-28T14:42:54;101489.25;;;5.23;nan
55685;BME280;41883;49.544;8.646;2023-02-28T14:45:20;101489.31;;;5.21;nan
55685;BME280;41883;49.544;8.646;2023-02-28T14:47:46;101488.41;;;5.08;nan
55685;BME280;41883;49.544;8.646;2023-02-28T14:50:19;101484.47;;;5.01;nan
55685;BME280;41883;49.544;8.646;2023-02-28T14:52:46;101492.31;;;5.01;nan
55685;BME280;41883;49.544;8.646;2023-02-28T14:55:12;101492.22;;;5.17;nan
55685;BME280;41883;49.544;8.646;2023-02-28T14:57:40;101495.56;;;4.90;nan
55685;BME280;41883;49.544;8.646;2023-02-28T15:00:22;101485.09;;;5.04;nan
55685;BME280;41883;49.544;8.646;2023-02-28T15:02:47;101485.56;;;4.97;nan
55685;BME280;41883;49.544;8.646;2023-02-28T15:07:38;101483.22;;;4.92;nan
55685;BME280;41883;49.544;8.646;2023-02-28T15:10:07;101475.63;;;4.87;nan
55685;BME280;41883;49.544;8.646;2023-02-28T15:12:32;101478.94;;;4.91;nan
55685;BME280;41883;49.544;8.646;2023-02-28T15:14:57;101475.00;;;4.84;nan
55685;BME280;41883;49.544;8.646;2023-02-28T15:17:22;101476.69;;;4.99;nan
55685;BME280;41883;49.544;8.646;2023-02-28T15:19:50;101472.38;;;4.98;nan
55685;BME280;41883;49.544;8.646;2023-02-28T15:22:17;101474.13;;;4.98;nan